Time;durP1;ratioP1;P1;durP2;ratioP2;P2;SDS_P1;SDS_P2;PMS_P1;PMS_P2;Temp;Humidity;BMP_temperature;BMP_pressure;BME280_temperature;BME280_humidity;BME280_pressure;Samples;Min_cycle;Max_cycle;Signal;HPM_P1;HPM_P2
2023/06/01 00:00:55;;;;;;;5.28;2.10;;;;;;;-144.47;49.22;52518.47;5008495;28;20072;-65
2023/06/01 00:03:21;;;;;;;7.10;2.30;;;;;;;-144.47;49.56;52542.28;5007709;28;20080;-68
2023/06/01 00:05:47;;;;;;;9.68;2.17;;;;;;;-144.47;50.10;52540.31;4998951;28;20034;-67
2023/06/01 00:08:12;;;;;;;8.35;2.20;;;;;;;-144.47;50.53;52536.34;5008685;28;20029;-69
2023/06/01 00:10:37;;;;;;;6.97;2.08;;;;;;;-144.47;51.01;52566.13;5006115;28;20528;-66
2023/06/01 00:13:03;;;;;;;7.20;2.38;;;;;;;-144.47;51.41;52562.16;5009005;28;20033;-69
2023/06/01 00:15:28;;;;;;;12.68;1.90;;;;;;;-144.47;51.87;52552.22;5007941;28;20036;-70
2023/06/01 00:17:53;;;;;;;10.15;2.10;;;;;;;-144.47;52.04;52562.16;5008287;28;20044;-69
2023/06/01 00:20:19;;;;;;;5.03;1.80;;;;;;;-144.47;52.54;52578.03;5005604;28;20022;-70
2023/06/01 00:22:44;;;;;;;8.10;2.30;;;;;;;-144.47;52.86;52544.28;5008536;28;20022;-67
2023/06/01 00:25:10;;;;;;;6.13;1.98;;;;;;;-144.47;52.97;52526.41;5007353;28;20341;-69
2023/06/01 00:27:35;;;;;;;6.40;2.25;;;;;;;-144.47;52.86;52562.16;5007074;28;20036;-68
2023/06/01 00:30:01;;;;;;;4.60;1.90;;;;;;;-144.47;53.19;52546.25;5008047;28;20131;-69
2023/06/01 00:32:26;;;;;;;4.60;1.92;;;;;;;-144.47;53.33;52534.34;5007754;28;20022;-67
2023/06/01 00:34:52;;;;;;;8.98;1.83;;;;;;;-144.47;53.41;52558.19;5006387;28;20116;-69
2023/06/01 00:37:17;;;;;;;5.32;2.03;;;;;;;-144.47;53.51;52560.16;5008014;28;20026;-67
2023/06/01 00:39:42;;;;;;;10.02;2.35;;;;;;;-144.47;53.70;52540.31;5007834;28;20088;-70
2023/06/01 00:42:08;;;;;;;5.53;2.10;;;;;;;-144.47;53.96;52546.25;5008177;28;20080;-69
2023/06/01 00:44:33;;;;;;;5.95;2.00;;;;;;;-144.47;54.10;52554.22;5007517;28;20125;-65
2023/06/01 00:46:59;;;;;;;5.90;1.83;;;;;;;-144.47;54.03;52546.25;5007743;28;20038;-70
2023/06/01 00:49:25;;;;;;;5.60;2.10;;;;;;;-144.47;54.17;52554.22;5007659;28;20105;-69
2023/06/01 00:51:51;;;;;;;4.40;1.90;;;;;;;-144.47;54.08;52574.06;5007769;28;20141;-71
2023/06/01 00:54:17;;;;;;;4.57;2.10;;;;;;;-144.47;54.49;52544.28;5006974;28;20097;-67
2023/06/01 00:56:42;;;;;;;6.82;2.10;;;;;;;-144.47;54.43;52564.13;5007931;28;20030;-70
2023/06/01 00:59:08;;;;;;;14.18;2.28;;;;;;;-144.47;54.73;52574.06;5007444;28;20026;-69
2023/06/01 01:01:33;;;;;;;13.70;2.33;;;;;;;-144.47;55.44;52568.13;5006271;28;20037;-66
2023/06/01 01:04:00;;;;;;;9.32;1.90;;;;;;;-144.47;55.52;52532.38;5000541;28;20034;-70
2023/06/01 01:06:34;;;;;;;8.63;2.15;;;;;;;-144.47;55.86;52542.28;5003813;28;20029;-65
2023/06/01 01:09:30;;;;;;;5.00;2.40;;;;;;;-144.47;56.14;52576.06;5006448;28;20070;-68
2023/06/01 01:12:19;;;;;;;9.98;2.58;;;;;;;-144.47;56.33;52552.22;5006978;28;20057;-69
2023/06/01 01:14:52;;;;;;;5.00;1.98;;;;;;;-144.47;56.55;52564.13;5006808;28;20500;-67
2023/06/01 01:17:32;;;;;;;7.68;2.45;;;;;;;-144.47;56.96;52570.09;5007437;28;20052;-69
2023/06/01 01:20:08;;;;;;;8.07;2.30;;;;;;;-144.47;57.41;52542.28;4994033;28;20071;-67
2023/06/01 01:22:53;;;;;;;11.02;2.30;;;;;;;-144.47;57.81;52580.03;5007724;28;20041;-71
2023/06/01 01:25:30;;;;;;;15.95;2.50;;;;;;;-144.47;57.93;52562.16;5006559;28;20073;-67
2023/06/01 01:28:32;;;;;;;6.78;2.10;;;;;;;-144.47;58.24;52568.13;5007941;28;20125;-69
2023/06/01 01:30:59;;;;;;;4.78;2.20;;;;;;;-144.47;58.65;52580.03;5005114;28;20025;-66
2023/06/01 01:33:26;;;;;;;10.45;1.95;;;;;;;-144.47;58.88;52568.13;5007338;28;20045;-66
2023/06/01 01:35:53;;;;;;;7.88;2.20;;;;;;;-144.47;59.06;52548.25;5006287;28;20022;-69
2023/06/01 01:38:18;;;;;;;5.95;1.92;;;;;;;-144.47;59.42;52570.09;5006413;28;20033;-69
2023/06/01 01:40:44;;;;;;;9.57;2.85;;;;;;;-144.47;59.60;52580.03;5007507;28;20021;-68
2023/06/01 01:43:10;;;;;;;16.48;2.65;;;;;;;-144.47;59.67;52595.91;5007596;28;20126;-69
2023/06/01 01:45:35;;;;;;;8.30;2.42;;;;;;;-144.47;59.97;52566.13;5006733;28;20026;-65
2023/06/01 01:48:19;;;;;;;9.57;2.20;;;;;;;-144.47;60.33;52556.19;5004340;28;20065;-67
2023/06/01 01:50:55;;;;;;;8.35;2.83;;;;;;;-144.47;60.27;52574.06;5006989;28;20033;-68
2023/06/01 01:53:23;;;;;;;8.90;2.25;;;;;;;-144.47;60.36;52578.03;5005714;28;20083;-66
2023/06/01 01:55:50;;;;;;;3.70;2.42;;;;;;;-144.47;60.50;52578.03;5021364;28;20032;-66
2023/06/01 01:58:16;;;;;;;6.20;3.13;;;;;;;-144.47;60.74;52572.09;5007431;28;20064;-68
2023/06/01 02:00:43;;;;;;;8.43;2.45;;;;;;;-144.47;61.22;52574.06;5007398;28;20053;-66
2023/06/01 02:03:18;;;;;;;7.97;2.47;;;;;;;-144.47;61.46;52576.06;5006984;28;20085;-65
2023/06/01 02:05:44;;;;;;;6.78;2.40;;;;;;;-144.47;61.89;52574.06;5005705;28;20108;-67
2023/06/01 02:08:09;;;;;;;4.95;2.58;;;;;;;-144.47;62.19;52605.84;5007658;28;20022;-68
2023/06/01 02:10:35;;;;;;;5.60;2.20;;;;;;;-144.47;62.58;52554.22;5005769;28;20041;-69
2023/06/01 02:13:01;;;;;;;7.32;2.92;;;;;;;-144.47;62.96;52562.16;5007803;28;20026;-67
2023/06/01 02:15:26;;;;;;;11.10;3.17;;;;;;;-144.47;62.89;52593.94;5006579;28;20550;-68
2023/06/01 02:17:53;;;;;;;9.35;3.10;;;;;;;-144.47;63.18;52582.00;5006933;28;20030;-69
2023/06/01 02:20:19;;;;;;;4.50;2.50;;;;;;;-144.47;63.38;52587.97;5002133;28;20096;-69
2023/06/01 02:22:45;;;;;;;6.90;2.22;;;;;;;-144.47;63.43;52568.13;5007993;28;20026;-68
2023/06/01 02:25:10;;;;;;;8.95;2.95;;;;;;;-144.47;63.53;52542.28;5007364;28;20033;-69
2023/06/01 02:27:35;;;;;;;6.10;2.47;;;;;;;-144.47;63.50;52597.91;4990437;28;20029;-70
2023/06/01 02:30:01;;;;;;;5.45;2.58;;;;;;;-144.47;63.54;52568.13;5006371;28;20026;-67
2023/06/01 02:32:26;;;;;;;8.35;2.25;;;;;;;-144.47;63.29;52603.84;5007158;28;20111;-70
2023/06/01 02:34:52;;;;;;;7.05;2.33;;;;;;;-144.47;63.55;52558.19;5009546;28;20033;-67
2023/06/01 02:37:17;;;;;;;13.13;2.90;;;;;;;-144.47;63.49;52580.03;5010220;28;20101;-69
2023/06/01 02:39:43;;;;;;;11.27;2.70;;;;;;;-144.47;63.53;52593.94;5010165;28;20522;-69
2023/06/01 02:42:08;;;;;;;7.20;2.38;;;;;;;-144.47;63.53;52574.06;5010180;28;20025;-67
2023/06/01 02:44:34;;;;;;;6.55;2.30;;;;;;;-144.47;63.53;52601.88;5009623;28;20092;-69
2023/06/01 02:46:59;;;;;;;6.30;2.33;;;;;;;-144.47;63.58;52576.06;5009584;28;20525;-66
2023/06/01 02:49:25;;;;;;;12.48;2.25;;;;;;;-144.47;63.99;52589.97;5009424;28;20037;-69
2023/06/01 02:51:50;;;;;;;15.63;2.38;;;;;;;-144.47;64.21;52566.13;5009580;28;20096;-69
2023/06/01 02:54:15;;;;;;;9.73;2.70;;;;;;;-144.47;64.57;52578.03;5005895;28;20399;-69
2023/06/01 02:56:41;;;;;;;7.82;2.13;;;;;;;-144.47;64.90;52589.97;5010109;28;20034;-67
2023/06/01 02:59:06;;;;;;;5.90;2.50;;;;;;;-144.47;65.38;52566.13;5008587;28;20029;-70
2023/06/01 03:01:34;;;;;;;13.32;3.00;;;;;;;-144.47;65.70;52584.00;5009674;28;20025;-68
2023/06/01 03:04:03;;;;;;;7.90;2.80;;;;;;;-144.47;65.89;52593.94;5003806;28;20029;-68
2023/06/01 03:06:31;;;;;;;10.52;2.50;;;;;;;-144.47;66.04;52609.81;5006825;28;20205;-65
2023/06/01 03:08:57;;;;;;;9.75;3.45;;;;;;;-144.47;66.12;52597.91;5009332;28;20032;-68
2023/06/01 03:11:22;;;;;;;8.27;2.55;;;;;;;-144.47;66.21;52584.00;5009891;28;20117;-67
2023/06/01 03:13:47;;;;;;;7.30;2.53;;;;;;;-144.47;66.78;52570.09;5007574;28;20026;-67
2023/06/01 03:16:13;;;;;;;8.18;3.28;;;;;;;-144.47;66.77;52564.13;5008814;28;20117;-68
2023/06/01 03:18:38;;;;;;;5.15;2.58;;;;;;;-144.47;67.08;52564.13;5007747;28;20049;-66
2023/06/01 03:21:04;;;;;;;8.18;2.75;;;;;;;-144.47;66.88;52593.94;5007072;28;20026;-67
2023/06/01 03:23:30;;;;;;;10.27;2.65;;;;;;;-144.47;67.20;52562.16;5008175;28;20476;-68
2023/06/01 03:25:55;;;;;;;11.52;2.85;;;;;;;-144.47;67.36;52587.97;5009304;28;20475;-69
2023/06/01 03:28:21;;;;;;;5.57;2.42;;;;;;;-144.47;67.87;52589.97;5007763;28;20029;-69
2023/06/01 03:30:46;;;;;;;8.68;3.10;;;;;;;-144.47;68.05;52584.00;5009171;28;20030;-68
2023/06/01 03:33:12;;;;;;;9.60;2.67;;;;;;;-144.47;68.25;52597.91;5007076;28;20049;-68
2023/06/01 03:35:37;;;;;;;12.13;3.28;;;;;;;-144.47;68.61;52587.97;5007580;28;20028;-70
2023/06/01 03:38:02;;;;;;;8.50;3.10;;;;;;;-144.47;69.34;52546.25;5007197;28;20152;-67
2023/06/01 03:40:28;;;;;;;10.93;2.80;;;;;;;-144.47;70.26;52593.94;5009180;28;20026;-68
2023/06/01 03:42:53;;;;;;;7.60;2.75;;;;;;;-144.47;70.70;52568.13;5009854;28;20056;-69
2023/06/01 03:45:19;;;;;;;10.48;3.85;;;;;;;-144.47;70.49;52585.97;5008529;28;20017;-66
2023/06/01 03:47:44;;;;;;;12.43;3.53;;;;;;;-144.47;71.03;52589.97;5008577;28;20199;-70
2023/06/01 03:50:11;;;;;;;9.23;3.15;;;;;;;-144.47;71.48;52584.00;5008532;28;20437;-65
2023/06/01 03:52:36;;;;;;;7.18;2.95;;;;;;;-144.47;71.63;52609.81;5008209;28;20030;-69
2023/06/01 03:55:07;;;;;;;11.50;3.53;;;;;;;-144.47;72.13;52601.88;5007623;28;20040;-69
2023/06/01 03:57:34;;;;;;;11.13;3.38;;;;;;;-144.47;72.15;52599.88;5007602;28;20053;-69
2023/06/01 04:00:00;;;;;;;10.57;3.42;;;;;;;-144.47;72.03;52570.09;5007888;28;20018;-68
2023/06/01 04:02:26;;;;;;;12.02;4.00;;;;;;;-144.47;72.05;52587.97;5009374;28;20048;-70
2023/06/01 04:04:51;;;;;;;8.82;3.38;;;;;;;-144.47;71.98;52593.94;4999338;28;20028;-67
2023/06/01 04:07:21;;;;;;;10.18;3.63;;;;;;;-144.47;71.56;52603.84;5008603;28;20025;-71
2023/06/01 04:09:47;;;;;;;19.90;3.90;;;;;;;-144.47;72.07;52591.94;5009114;28;20137;-70
2023/06/01 04:12:13;;;;;;;12.80;3.97;;;;;;;-144.47;72.35;52611.81;5009207;28;20107;-70
2023/06/01 04:14:38;;;;;;;8.20;3.70;;;;;;;-144.47;72.35;52582.00;5008278;28;20030;-66
2023/06/01 04:17:04;;;;;;;10.60;3.63;;;;;;;-144.47;72.12;52585.97;5007010;28;20032;-67
2023/06/01 04:19:30;;;;;;;9.18;3.13;;;;;;;-144.47;72.18;52597.91;5020287;22;20046;-67
2023/06/01 04:21:57;;;;;;;8.05;3.08;;;;;;;-144.47;72.23;52595.91;5010216;28;20029;-69
2023/06/01 04:24:22;;;;;;;8.60;3.35;;;;;;;-144.47;72.35;52607.84;5008378;28;20546;-67
2023/06/01 04:26:49;;;;;;;10.82;3.67;;;;;;;-144.47;72.60;52582.00;5010676;28;20064;-69
2023/06/01 04:29:15;;;;;;;9.80;3.55;;;;;;;-144.47;72.63;52601.88;5008556;28;20022;-69
2023/06/01 04:31:40;;;;;;;7.53;3.53;;;;;;;-144.47;72.77;52587.97;5010055;28;20030;-68
2023/06/01 04:34:06;;;;;;;6.68;3.15;;;;;;;-144.47;72.75;52615.78;5007218;28;20026;-68
2023/06/01 04:36:38;;;;;;;11.63;4.32;;;;;;;-144.47;73.52;52593.94;5009531;28;20030;-68
2023/06/01 04:39:07;;;;;;;12.40;4.03;;;;;;;-144.47;73.03;52599.88;5009520;28;20029;-66
2023/06/01 04:41:37;;;;;;;7.43;3.53;;;;;;;-144.47;73.27;52570.09;5010520;28;20542;-67
2023/06/01 04:44:05;;;;;;;8.27;3.10;;;;;;;-144.47;73.38;52601.88;5007786;28;20057;-68
2023/06/01 04:46:31;;;;;;;15.70;3.83;;;;;;;-144.47;73.91;52591.94;5000655;28;20030;-68
2023/06/01 04:48:58;;;;;;;14.18;3.70;;;;;;;-144.47;74.57;52562.16;5001187;28;20419;-71
2023/06/01 04:51:24;;;;;;;10.70;3.83;;;;;;;-144.47;74.42;52585.97;5000479;28;20499;-71
2023/06/01 04:53:52;;;;;;;7.28;3.60;;;;;;;-144.47;74.07;52595.91;4999831;28;20390;-70
2023/06/01 04:56:27;;;;;;;7.40;3.40;;;;;;;-144.47;74.39;52599.88;4997724;28;20038;-70
2023/06/01 04:58:56;;;;;;;17.50;3.67;;;;;;;-144.47;74.54;52595.91;4997980;28;20041;-69
2023/06/01 05:01:29;;;;;;;18.85;5.60;;;;;;;-144.47;75.08;52591.94;4997039;28;20045;-72
2023/06/01 05:03:55;;;;;;;11.30;5.35;;;;;;;-144.47;75.60;52587.97;4996068;28;20042;-71
2023/06/01 05:06:21;;;;;;;16.20;4.65;;;;;;;-144.47;75.93;52585.97;5001780;28;20105;-72
2023/06/01 05:08:47;;;;;;;35.95;7.38;;;;;;;-144.47;76.21;52603.84;5000031;28;20033;-69
2023/06/01 05:11:13;;;;;;;11.25;4.97;;;;;;;-144.47;76.73;52597.91;5002856;28;20041;-69
2023/06/01 05:13:40;;;;;;;18.88;5.68;;;;;;;-144.47;76.90;52595.91;5001126;28;20034;-71
2023/06/01 05:16:07;;;;;;;28.40;5.90;;;;;;;-144.47;77.01;52617.75;5001847;28;20068;-71
2023/06/01 05:18:33;;;;;;;17.77;5.13;;;;;;;-144.47;76.80;52601.88;5001064;28;20486;-71
2023/06/01 05:20:59;;;;;;;14.07;5.18;;;;;;;-144.47;76.73;52576.06;5000591;28;20447;-68
2023/06/01 05:23:25;;;;;;;14.82;5.53;;;;;;;-144.47;77.08;52605.84;5001282;28;20519;-71
2023/06/01 05:25:51;;;;;;;13.80;5.60;;;;;;;-144.47;77.30;52611.81;5001642;28;20109;-67
2023/06/01 05:28:17;;;;;;;10.80;5.15;;;;;;;-144.47;77.81;52593.94;5000190;28;20157;-70
2023/06/01 05:30:45;;;;;;;12.88;5.85;;;;;;;-144.47;77.84;52591.94;5001484;28;20034;-70
2023/06/01 05:33:10;;;;;;;12.55;5.57;;;;;;;-144.47;78.40;52580.03;5002687;28;20030;-70
2023/06/01 05:35:36;;;;;;;13.52;5.30;;;;;;;-144.47;77.71;52599.88;4999672;28;20044;-68
2023/06/01 05:38:01;;;;;;;18.45;6.15;;;;;;;-144.47;78.33;52601.88;4999668;28;20033;-67
2023/06/01 05:40:27;;;;;;;20.27;6.18;;;;;;;-144.47;78.50;52585.97;5005832;28;20014;-66
2023/06/01 05:42:53;;;;;;;13.63;4.95;;;;;;;-144.47;78.73;52597.91;5006826;28;20034;-70
2023/06/01 05:45:18;;;;;;;13.70;5.85;;;;;;;-144.47;79.07;52601.88;5007231;28;20389;-68
2023/06/01 05:47:43;;;;;;;12.45;5.57;;;;;;;-144.47;79.86;52619.75;5007221;28;20034;-67
2023/06/01 05:50:09;;;;;;;12.75;6.13;;;;;;;-144.47;80.72;52623.72;5008404;28;20108;-71
2023/06/01 05:52:35;;;;;;;16.02;6.18;;;;;;;-144.47;80.40;52564.13;5007058;28;20041;-68
2023/06/01 05:55:00;;;;;;;13.05;6.03;;;;;;;-144.47;80.03;52593.94;5007491;28;20361;-70
2023/06/01 05:57:26;;;;;;;20.55;6.97;;;;;;;-144.47;80.23;52609.81;5007547;28;20080;-68
2023/06/01 05:59:53;;;;;;;20.90;7.55;;;;;;;-144.47;79.61;52595.91;5008283;28;20037;-68
2023/06/01 06:02:19;;;;;;;17.75;5.78;;;;;;;-144.47;79.29;52597.91;5008303;28;20057;-66
2023/06/01 06:04:44;;;;;;;16.52;6.25;;;;;;;-144.47;78.99;52587.97;5003419;28;20044;-67
2023/06/01 06:07:09;;;;;;;14.73;5.75;;;;;;;-144.47;78.76;52591.94;5007792;28;20022;-69
2023/06/01 06:09:35;;;;;;;15.02;5.93;;;;;;;-144.47;78.94;52605.84;5011702;28;20045;-66
2023/06/01 06:12:01;;;;;;;12.60;6.63;;;;;;;-144.47;79.53;52611.81;5012927;28;20026;-68
2023/06/01 06:14:27;;;;;;;16.00;6.85;;;;;;;-144.47;78.96;52607.84;5011842;28;20072;-65
2023/06/01 06:16:52;;;;;;;15.02;6.60;;;;;;;-144.47;79.65;52540.31;5012626;28;20435;-65
2023/06/01 06:19:17;;;;;;;16.05;6.60;;;;;;;-144.47;80.35;52605.84;5012093;28;20117;-67
2023/06/01 06:21:43;;;;;;;16.67;6.43;;;;;;;-144.47;80.61;52560.16;5010886;28;20077;-71
2023/06/01 06:24:09;;;;;;;15.98;6.45;;;;;;;-144.47;80.75;52593.94;5002959;28;20113;-71
2023/06/01 06:26:35;;;;;;;19.58;6.53;;;;;;;-144.47;80.77;52597.91;5007540;28;20026;-66
2023/06/01 06:29:00;;;;;;;16.48;6.63;;;;;;;-144.47;79.91;52605.84;5012164;28;20101;-70
2023/06/01 06:31:26;;;;;;;17.85;7.50;;;;;;;-144.47;78.49;52617.75;5011666;28;20050;-66
2023/06/01 06:33:52;;;;;;;22.23;6.88;;;;;;;-144.47;77.69;52566.13;5010162;28;20448;-65
2023/06/01 06:36:17;;;;;;;19.38;7.60;;;;;;;-144.47;77.62;52595.91;4998498;28;20766;-69
2023/06/01 06:38:43;;;;;;;15.43;6.30;;;;;;;-144.47;77.93;52603.84;5001657;28;20703;-67
2023/06/01 06:41:09;;;;;;;14.00;6.80;;;;;;;-144.47;77.77;52597.91;5004568;28;20025;-69
2023/06/01 06:43:34;;;;;;;16.50;6.97;;;;;;;-144.47;76.76;52574.06;5002908;28;20034;-68
2023/06/01 06:46:00;;;;;;;19.35;8.43;;;;;;;-144.47;76.96;52595.91;5004067;28;20026;-69
2023/06/01 06:48:25;;;;;;;17.52;7.78;;;;;;;-144.47;78.55;52597.91;5008079;28;20057;-67
2023/06/01 06:50:51;;;;;;;19.02;7.65;;;;;;;-144.47;79.07;52589.97;5009689;28;20026;-66
2023/06/01 06:53:17;;;;;;;15.48;8.05;;;;;;;-144.47;77.95;52625.72;5005895;28;20107;-66
2023/06/01 06:55:44;;;;;;;17.23;7.68;;;;;;;-144.47;77.53;52611.81;5011607;28;20483;-66
2023/06/01 06:58:10;;;;;;;18.80;8.90;;;;;;;-144.47;76.73;52589.97;4998095;28;20057;-66
2023/06/01 07:00:36;;;;;;;14.77;8.38;;;;;;;-144.47;75.37;52591.94;5009954;28;20033;-66
2023/06/01 07:03:03;;;;;;;13.25;7.38;;;;;;;-144.47;75.58;52582.00;5010919;28;20030;-66
2023/06/01 07:05:28;;;;;;;17.13;8.70;;;;;;;-144.47;74.67;52593.94;5007962;28;20029;-66
2023/06/01 07:07:54;;;;;;;26.08;9.57;;;;;;;-144.47;75.46;52601.88;5010559;28;20357;-66
2023/06/01 07:10:19;;;;;;;18.23;8.85;;;;;;;-144.47;75.83;52607.84;5011181;28;20546;-66
2023/06/01 07:12:45;;;;;;;21.10;9.85;;;;;;;-144.47;74.61;52542.28;5005697;28;20052;-64
2023/06/01 07:15:10;;;;;;;17.73;8.57;;;;;;;-144.47;74.33;52580.03;5009051;28;20018;-64
2023/06/01 07:17:36;;;;;;;21.35;9.90;;;;;;;-144.47;73.68;52585.97;5010932;28;20502;-67
2023/06/01 07:20:06;;;;;;;18.23;9.65;;;;;;;-144.47;72.68;52597.91;5008584;28;20537;-65
2023/06/01 07:22:32;;;;;;;17.65;8.45;;;;;;;-144.47;69.63;52601.88;5009654;28;20022;-65
2023/06/01 07:25:04;;;;;;;22.10;9.48;;;;;;;-144.47;71.66;52572.09;5010084;28;20022;-66
2023/06/01 07:27:31;;;;;;;19.95;9.80;;;;;;;-144.47;73.00;52593.94;5011631;28;20026;-66
2023/06/01 07:29:56;;;;;;;23.58;11.02;;;;;;;-144.47;73.26;52611.81;5010935;28;20022;-63
2023/06/01 07:32:23;;;;;;;22.45;10.75;;;;;;;-144.47;73.12;52587.97;5010918;28;20393;-65
2023/06/01 07:34:48;;;;;;;22.35;11.25;;;;;;;-144.47;71.93;52593.94;5008865;28;20030;-67
2023/06/01 07:37:13;;;;;;;17.80;10.00;;;;;;;-144.47;71.49;52599.88;5010987;28;20040;-66
2023/06/01 07:39:39;;;;;;;32.10;10.23;;;;;;;-144.47;69.77;52562.16;5010505;28;20376;-67
2023/06/01 07:42:05;;;;;;;22.55;10.20;;;;;;;-144.47;69.67;52560.16;5007557;28;20447;-68
2023/06/01 07:44:30;;;;;;;21.17;10.73;;;;;;;-144.47;69.41;52564.13;5009546;28;20057;-65
2023/06/01 07:46:56;;;;;;;24.80;10.52;;;;;;;-144.47;69.69;52578.03;5010833;28;20026;-65
2023/06/01 07:49:21;;;;;;;22.15;10.75;;;;;;;-144.47;69.27;52589.97;5009807;28;20257;-63
2023/06/01 07:51:47;;;;;;;21.65;9.95;;;;;;;-144.47;69.74;52572.09;5011280;28;20065;-67
2023/06/01 07:54:13;;;;;;;19.10;8.65;;;;;;;-144.47;68.96;52587.97;5008945;28;20017;-67
2023/06/01 07:56:39;;;;;;;20.05;8.85;;;;;;;-144.47;69.20;52593.94;5011185;28;20064;-66
2023/06/01 07:59:05;;;;;;;27.67;10.32;;;;;;;-144.47;68.93;52578.03;5010184;28;20026;-67
2023/06/01 08:01:31;;;;;;;21.80;10.23;;;;;;;-144.47;67.92;52589.97;5003560;28;20068;-67
2023/06/01 08:03:56;;;;;;;22.25;11.00;;;;;;;-144.47;68.42;52542.28;4998555;28;20040;-67
2023/06/01 08:06:25;;;;;;;20.70;9.60;;;;;;;-144.47;68.74;52582.00;5002553;28;20030;-68
2023/06/01 08:08:51;;;;;;;22.50;10.75;;;;;;;-144.47;67.67;52568.13;5001876;28;20117;-69
2023/06/01 08:11:16;;;;;;;18.90;10.30;;;;;;;-144.47;66.80;52591.94;5001917;28;20131;-66
2023/06/01 08:13:45;;;;;;;25.65;10.55;;;;;;;-144.47;67.13;52599.88;5001905;28;20049;-68
2023/06/01 08:16:12;;;;;;;29.08;12.35;;;;;;;-144.47;67.46;52572.09;5001603;28;20096;-67
2023/06/01 08:18:38;;;;;;;22.42;10.65;;;;;;;-144.47;67.21;52574.06;5003256;28;20047;-66
2023/06/01 08:21:04;;;;;;;20.00;11.07;;;;;;;-144.47;67.36;52570.09;5000792;28;20045;-66
2023/06/01 08:23:29;;;;;;;27.02;10.82;;;;;;;-144.47;65.79;52580.03;5001162;28;20036;-66
2023/06/01 08:25:55;;;;;;;24.75;10.77;;;;;;;-144.47;65.37;52574.06;5001479;28;20208;-64
2023/06/01 08:28:23;;;;;;;24.23;11.07;;;;;;;-144.47;65.89;52574.06;5001718;28;20022;-66
2023/06/01 08:30:48;;;;;;;24.23;11.60;;;;;;;-144.47;65.79;52597.91;5001185;28;20160;-67
2023/06/01 08:33:15;;;;;;;27.27;11.43;;;;;;;-144.47;65.45;52597.91;5002488;28;20122;-66
2023/06/01 08:35:40;;;;;;;26.70;11.95;;;;;;;-144.47;64.75;52584.00;4999914;28;20530;-68
2023/06/01 08:38:05;;;;;;;22.83;10.30;;;;;;;-144.47;63.37;52566.13;5002307;28;20045;-64
2023/06/01 08:40:31;;;;;;;25.65;11.02;;;;;;;-144.47;61.46;52562.16;5002812;28;20029;-67
2023/06/01 08:43:13;;;;;;;32.08;11.70;;;;;;;-144.47;61.18;52554.22;5003627;28;20144;-66
2023/06/01 08:45:40;;;;;;;29.02;11.32;;;;;;;-144.47;58.92;52574.06;5001467;28;20452;-67
2023/06/01 08:48:08;;;;;;;28.75;12.90;;;;;;;-144.47;59.47;52560.16;5003295;28;20033;-67
2023/06/01 08:50:34;;;;;;;31.77;14.07;;;;;;;-144.47;59.73;52580.03;5002492;28;20054;-64
2023/06/01 08:53:01;;;;;;;34.40;14.52;;;;;;;-144.47;59.28;52572.09;5002017;28;20570;-68
2023/06/01 08:55:26;;;;;;;28.88;14.20;;;;;;;-144.47;58.06;52562.16;4999593;28;20515;-68
2023/06/01 08:57:53;;;;;;;30.75;15.00;;;;;;;-144.47;57.25;52568.13;5002306;28;20034;-67
2023/06/01 09:00:20;;;;;;;31.27;14.98;;;;;;;-144.47;56.54;52578.03;5002715;28;20026;-65
2023/06/01 09:02:45;;;;;;;30.42;14.75;;;;;;;-144.47;55.47;52570.09;5002245;28;20120;-66
2023/06/01 09:05:12;;;;;;;26.77;14.48;;;;;;;-144.47;55.32;52560.16;4999300;28;20459;-67
2023/06/01 09:07:38;;;;;;;32.00;14.52;;;;;;;-144.47;54.90;52562.16;5002325;28;20064;-65
2023/06/01 09:10:05;;;;;;;36.15;16.42;;;;;;;-144.47;54.54;52576.06;5002662;28;20504;-69
2023/06/01 09:12:32;;;;;;;28.40;14.63;;;;;;;-144.47;52.93;52554.22;5000877;28;20050;-67
2023/06/01 09:15:11;;;;;;;30.90;15.05;;;;;;;-144.47;52.44;52585.97;5001170;28;20030;-65
2023/06/01 09:17:42;;;;;;;36.70;16.52;;;;;;;-144.47;53.03;52566.13;5003246;28;20034;-67
2023/06/01 09:20:12;;;;;;;33.35;16.08;;;;;;;-144.47;53.21;52585.97;5001991;28;20818;-70
2023/06/01 09:22:45;;;;;;;30.23;15.68;;;;;;;-144.47;52.25;52568.13;5001480;28;20042;-67
2023/06/01 09:25:13;;;;;;;32.50;16.73;;;;;;;-144.47;52.52;52580.03;4999440;28;20179;-69
2023/06/01 09:27:45;;;;;;;31.05;15.40;;;;;;;-144.47;52.14;52566.13;5003282;28;20505;-65
2023/06/01 09:30:11;;;;;;;29.98;15.50;;;;;;;-144.47;51.87;52554.22;5002944;28;20417;-69
2023/06/01 09:32:36;;;;;;;28.95;17.38;;;;;;;-144.47;51.52;52562.16;5003137;28;20034;-68
2023/06/01 09:35:03;;;;;;;30.17;16.85;;;;;;;-144.47;51.20;52570.09;5000187;28;20104;-67
2023/06/01 09:37:28;;;;;;;30.42;15.93;;;;;;;-144.47;50.88;52568.13;5001757;28;20841;-68
2023/06/01 09:39:54;;;;;;;31.33;16.55;;;;;;;-144.47;51.05;52538.31;5001159;28;20021;-71
2023/06/01 09:42:34;;;;;;;28.58;16.80;;;;;;;-144.47;51.34;52570.09;5004896;28;20103;-66
2023/06/01 09:45:18;;;;;;;25.40;16.10;;;;;;;-144.47;51.21;52566.13;5004383;28;20508;-69
2023/06/01 09:47:43;;;;;;;29.35;15.50;;;;;;;-144.47;50.53;52554.22;5006526;28;20030;-66
2023/06/01 09:50:10;;;;;;;36.80;16.38;;;;;;;-144.47;50.56;52548.25;5006322;28;20025;-67
2023/06/01 09:52:35;;;;;;;29.15;15.10;;;;;;;-144.47;50.62;52580.03;5005985;28;20037;-69
2023/06/01 09:55:09;;;;;;;33.35;15.85;;;;;;;-144.47;50.68;52552.22;5003394;28;20034;-67
2023/06/01 09:57:34;;;;;;;31.67;14.25;;;;;;;-144.47;50.85;52576.06;5007399;28;20155;-67
2023/06/01 10:00:05;;;;;;;29.52;16.30;;;;;;;-144.47;50.49;52564.13;5006836;28;20743;-69
2023/06/01 10:02:32;;;;;;;24.83;14.60;;;;;;;-144.47;49.92;52584.00;5005424;28;20783;-67
2023/06/01 10:04:58;;;;;;;27.30;13.13;;;;;;;-144.47;50.49;52546.25;5002231;28;20116;-65
2023/06/01 10:07:30;;;;;;;29.08;14.32;;;;;;;-144.47;50.49;52542.28;5004446;28;20522;-67
2023/06/01 10:09:58;;;;;;;24.60;12.70;;;;;;;-144.47;50.67;52572.09;5006043;28;20038;-66
2023/06/01 10:12:27;;;;;;;25.58;12.32;;;;;;;-144.47;50.53;52544.28;5006009;28;20380;-67
2023/06/01 10:14:53;;;;;;;22.48;11.85;;;;;;;-144.47;51.11;52558.19;5003183;28;20105;-66
2023/06/01 10:17:19;;;;;;;21.65;10.85;;;;;;;-144.47;51.87;52558.19;5002916;28;20727;-68
2023/06/01 10:19:45;;;;;;;21.73;9.70;;;;;;;-144.47;52.71;52556.19;5015227;22;20466;-73
2023/06/01 10:22:11;;;;;;;20.65;10.40;;;;;;;-144.47;52.35;52574.06;5002627;28;20534;-72
2023/06/01 10:24:40;;;;;;;17.70;10.55;;;;;;;-144.47;52.29;52570.09;5000135;28;20042;-71
2023/06/01 10:27:11;;;;;;;18.80;10.55;;;;;;;-144.47;52.08;52538.31;5003751;28;20103;-67
2023/06/01 10:29:38;;;;;;;19.58;11.13;;;;;;;-144.47;51.97;52556.19;5003586;28;20046;-66
2023/06/01 10:32:03;;;;;;;19.35;10.35;;;;;;;-144.47;52.08;52558.19;5004208;28;20044;-68
2023/06/01 10:34:42;;;;;;;20.98;10.18;;;;;;;-144.47;52.49;52566.13;5000779;28;20037;-67
2023/06/01 10:37:07;;;;;;;;;;;;;;;-144.47;52.38;52568.13;5014797;28;20030;-68
2023/06/01 10:39:34;;;;;;;23.23;12.18;;;;;;;-144.47;53.32;52587.97;5001394;28;19925;-69
2023/06/01 10:42:14;;;;;;;26.17;12.90;;;;;;;-144.47;53.89;52580.03;5003397;28;20034;-67
2023/06/01 10:44:39;;;;;;;18.75;11.90;;;;;;;-144.47;53.95;52574.06;5001880;28;20107;-70
2023/06/01 10:47:05;;;;;;;26.13;12.57;;;;;;;-144.47;52.91;52585.97;5007365;28;20407;-70
2023/06/01 10:49:49;;;;;;;26.35;12.38;;;;;;;-144.47;53.10;52562.16;5005644;28;20136;-67
2023/06/01 10:52:40;;;;;;;22.98;12.77;;;;;;;-144.47;52.67;52564.13;5008186;28;20120;-67
2023/06/01 10:55:06;;;;;;;22.48;12.15;;;;;;;-144.47;53.68;52558.19;5006391;28;20022;-66
2023/06/01 10:57:35;;;;;;;26.38;12.80;;;;;;;-144.47;52.81;52554.22;5009098;28;20060;-71
2023/06/01 11:00:13;;;;;;;28.05;13.80;;;;;;;-144.47;52.79;52599.88;5002807;28;20135;-68
2023/06/01 11:02:48;;;;;;;20.48;13.07;;;;;;;-144.47;52.53;52568.13;4997309;28;20116;-68
2023/06/01 11:05:38;;;;;;;27.20;13.98;;;;;;;-144.47;52.54;52584.00;5002554;28;20105;-69
2023/06/01 11:08:14;;;;;;;33.15;14.30;;;;;;;-144.47;52.97;52578.03;5010093;28;20468;-69
2023/06/01 11:10:52;;;;;;;22.38;13.43;;;;;;;-144.47;52.48;52566.13;5021065;28;20086;-70